臺北飛航情報區 - 海峽席

METAR RCTP 141630Z 08015KT 9999 FEW020 20/15 Q1020 NOSIG RMK A3014(N)=

站台狀態:Online
最後更新:2019-12-15 00:30:02